sensor_id;sensor_type;location;lat;lon;timestamp;P1;durP1;ratioP1;P2;durP2;ratioP2
46675;SDS011;32412;51.478;5.694;2022-07-10T00:00:28;3.70;;;1.60;;
46675;SDS011;32412;51.478;5.694;2022-07-10T00:02:55;6.53;;;1.70;;
46675;SDS011;32412;51.478;5.694;2022-07-10T00:05:21;5.22;;;1.80;;
46675;SDS011;32412;51.478;5.694;2022-07-10T00:07:48;6.50;;;1.52;;
46675;SDS011;32412;51.478;5.694;2022-07-10T00:10:17;6.05;;;1.50;;
46675;SDS011;32412;51.478;5.694;2022-07-10T00:12:45;4.70;;;1.67;;
46675;SDS011;32412;51.478;5.694;2022-07-10T00:15:11;7.53;;;2.30;;
46675;SDS011;32412;51.478;5.694;2022-07-10T00:17:38;9.60;;;1.80;;
46675;SDS011;32412;51.478;5.694;2022-07-10T00:20:05;6.72;;;1.98;;
46675;SDS011;32412;51.478;5.694;2022-07-10T00:22:35;7.95;;;2.13;;
46675;SDS011;32412;51.478;5.694;2022-07-10T00:25:03;4.65;;;1.73;;
46675;SDS011;32412;51.478;5.694;2022-07-10T00:27:29;6.45;;;1.52;;
46675;SDS011;32412;51.478;5.694;2022-07-10T00:29:55;6.05;;;2.08;;
46675;SDS011;32412;51.478;5.694;2022-07-10T00:32:21;3.83;;;2.00;;
46675;SDS011;32412;51.478;5.694;2022-07-10T00:34:47;8.38;;;2.40;;
46675;SDS011;32412;51.478;5.694;2022-07-10T00:37:12;6.45;;;1.70;;
46675;SDS011;32412;51.478;5.694;2022-07-10T00:39:38;7.32;;;2.20;;
46675;SDS011;32412;51.478;5.694;2022-07-10T00:42:10;4.88;;;1.90;;
46675;SDS011;32412;51.478;5.694;2022-07-10T00:44:38;8.77;;;2.03;;
46675;SDS011;32412;51.478;5.694;2022-07-10T00:47:04;16.23;;;2.40;;
46675;SDS011;32412;51.478;5.694;2022-07-10T00:49:31;7.30;;;1.80;;
46675;SDS011;32412;51.478;5.694;2022-07-10T00:51:58;4.82;;;1.85;;
46675;SDS011;32412;51.478;5.694;2022-07-10T00:54:26;5.15;;;1.98;;
46675;SDS011;32412;51.478;5.694;2022-07-10T00:56:53;4.65;;;1.77;;
46675;SDS011;32412;51.478;5.694;2022-07-10T00:59:20;6.38;;;1.77;;
46675;SDS011;32412;51.478;5.694;2022-07-10T01:01:47;5.55;;;2.10;;
46675;SDS011;32412;51.478;5.694;2022-07-10T01:04:13;9.32;;;1.67;;
46675;SDS011;32412;51.478;5.694;2022-07-10T01:06:39;13.20;;;2.28;;
46675;SDS011;32412;51.478;5.694;2022-07-10T01:09:04;5.60;;;1.80;;
46675;SDS011;32412;51.478;5.694;2022-07-10T01:11:31;5.68;;;2.20;;
46675;SDS011;32412;51.478;5.694;2022-07-10T01:13:59;7.05;;;1.92;;
46675;SDS011;32412;51.478;5.694;2022-07-10T01:16:26;5.35;;;2.20;;
46675;SDS011;32412;51.478;5.694;2022-07-10T01:18:51;4.70;;;1.73;;
46675;SDS011;32412;51.478;5.694;2022-07-10T01:21:27;6.32;;;2.10;;
46675;SDS011;32412;51.478;5.694;2022-07-10T01:23:55;8.77;;;2.30;;
46675;SDS011;32412;51.478;5.694;2022-07-10T01:26:24;4.90;;;2.10;;
46675;SDS011;32412;51.478;5.694;2022-07-10T01:28:50;7.25;;;2.53;;
46675;SDS011;32412;51.478;5.694;2022-07-10T01:31:17;4.00;;;2.08;;
46675;SDS011;32412;51.478;5.694;2022-07-10T01:33:44;4.70;;;2.40;;
46675;SDS011;32412;51.478;5.694;2022-07-10T01:36:11;8.43;;;2.28;;
46675;SDS011;32412;51.478;5.694;2022-07-10T01:38:37;12.20;;;2.80;;
46675;SDS011;32412;51.478;5.694;2022-07-10T01:41:03;5.90;;;2.50;;
46675;SDS011;32412;51.478;5.694;2022-07-10T01:43:29;10.88;;;2.78;;
46675;SDS011;32412;51.478;5.694;2022-07-10T01:45:55;9.77;;;2.80;;
46675;SDS011;32412;51.478;5.694;2022-07-10T01:48:20;5.60;;;2.20;;
46675;SDS011;32412;51.478;5.694;2022-07-10T01:50:46;4.93;;;2.53;;
46675;SDS011;32412;51.478;5.694;2022-07-10T01:53:12;6.22;;;2.40;;
46675;SDS011;32412;51.478;5.694;2022-07-10T01:55:37;7.72;;;3.13;;
46675;SDS011;32412;51.478;5.694;2022-07-10T01:58:03;8.50;;;2.60;;
46675;SDS011;32412;51.478;5.694;2022-07-10T02:00:29;7.75;;;2.78;;
46675;SDS011;32412;51.478;5.694;2022-07-10T02:02:54;7.45;;;2.50;;
46675;SDS011;32412;51.478;5.694;2022-07-10T02:05:38;7.18;;;2.20;;
46675;SDS011;32412;51.478;5.694;2022-07-10T02:08:04;6.40;;;2.70;;
46675;SDS011;32412;51.478;5.694;2022-07-10T02:10:31;6.15;;;2.47;;
46675;SDS011;32412;51.478;5.694;2022-07-10T02:12:57;9.55;;;2.95;;
46675;SDS011;32412;51.478;5.694;2022-07-10T02:15:23;6.63;;;2.40;;
46675;SDS011;32412;51.478;5.694;2022-07-10T02:17:48;6.80;;;2.10;;
46675;SDS011;32412;51.478;5.694;2022-07-10T02:20:14;5.90;;;2.25;;
46675;SDS011;32412;51.478;5.694;2022-07-10T02:22:40;5.80;;;2.10;;
46675;SDS011;32412;51.478;5.694;2022-07-10T02:25:06;9.02;;;2.38;;
46675;SDS011;32412;51.478;5.694;2022-07-10T02:27:32;5.40;;;2.20;;
46675;SDS011;32412;51.478;5.694;2022-07-10T02:29:57;5.85;;;2.28;;
46675;SDS011;32412;51.478;5.694;2022-07-10T02:32:23;10.50;;;2.70;;
46675;SDS011;32412;51.478;5.694;2022-07-10T02:34:51;8.07;;;2.28;;
46675;SDS011;32412;51.478;5.694;2022-07-10T02:37:17;7.15;;;2.60;;
46675;SDS011;32412;51.478;5.694;2022-07-10T02:39:42;10.65;;;2.65;;
46675;SDS011;32412;51.478;5.694;2022-07-10T02:42:08;7.80;;;2.03;;
46675;SDS011;32412;51.478;5.694;2022-07-10T02:44:34;6.72;;;2.35;;
46675;SDS011;32412;51.478;5.694;2022-07-10T02:46:59;14.95;;;2.83;;
46675;SDS011;32412;51.478;5.694;2022-07-10T02:49:25;7.18;;;2.28;;
46675;SDS011;32412;51.478;5.694;2022-07-10T02:51:51;9.73;;;2.40;;
46675;SDS011;32412;51.478;5.694;2022-07-10T02:54:17;6.00;;;2.35;;
46675;SDS011;32412;51.478;5.694;2022-07-10T02:56:42;8.45;;;2.03;;
46675;SDS011;32412;51.478;5.694;2022-07-10T02:59:08;6.70;;;2.55;;
46675;SDS011;32412;51.478;5.694;2022-07-10T03:01:34;4.32;;;2.50;;
46675;SDS011;32412;51.478;5.694;2022-07-10T03:04:00;10.57;;;2.95;;
46675;SDS011;32412;51.478;5.694;2022-07-10T03:06:26;7.63;;;3.20;;
46675;SDS011;32412;51.478;5.694;2022-07-10T03:08:52;8.80;;;2.90;;
46675;SDS011;32412;51.478;5.694;2022-07-10T03:11:17;7.50;;;2.58;;
46675;SDS011;32412;51.478;5.694;2022-07-10T03:13:43;4.35;;;2.20;;
46675;SDS011;32412;51.478;5.694;2022-07-10T03:16:09;10.10;;;2.80;;
46675;SDS011;32412;51.478;5.694;2022-07-10T03:18:35;8.18;;;2.47;;
46675;SDS011;32412;51.478;5.694;2022-07-10T03:21:00;9.77;;;2.92;;
46675;SDS011;32412;51.478;5.694;2022-07-10T03:26:10;10.25;;;2.70;;
46675;SDS011;32412;51.478;5.694;2022-07-10T03:28:36;5.50;;;2.40;;
46675;SDS011;32412;51.478;5.694;2022-07-10T03:31:02;8.80;;;2.20;;
46675;SDS011;32412;51.478;5.694;2022-07-10T03:33:27;7.05;;;2.40;;
46675;SDS011;32412;51.478;5.694;2022-07-10T03:35:53;4.63;;;2.00;;
46675;SDS011;32412;51.478;5.694;2022-07-10T03:38:21;8.63;;;2.40;;
46675;SDS011;32412;51.478;5.694;2022-07-10T03:40:47;7.03;;;2.28;;
46675;SDS011;32412;51.478;5.694;2022-07-10T03:43:16;8.50;;;2.05;;
46675;SDS011;32412;51.478;5.694;2022-07-10T03:45:41;8.43;;;2.50;;
46675;SDS011;32412;51.478;5.694;2022-07-10T03:48:07;2.47;;;2.05;;
46675;SDS011;32412;51.478;5.694;2022-07-10T03:50:33;9.05;;;2.45;;
46675;SDS011;32412;51.478;5.694;2022-07-10T03:52:59;9.95;;;2.40;;
46675;SDS011;32412;51.478;5.694;2022-07-10T03:55:24;9.38;;;2.05;;
46675;SDS011;32412;51.478;5.694;2022-07-10T03:57:50;7.75;;;2.53;;
46675;SDS011;32412;51.478;5.694;2022-07-10T04:00:19;3.85;;;2.08;;
46675;SDS011;32412;51.478;5.694;2022-07-10T04:05:25;5.97;;;2.25;;
46675;SDS011;32412;51.478;5.694;2022-07-10T04:07:51;7.93;;;2.38;;
46675;SDS011;32412;51.478;5.694;2022-07-10T04:10:17;7.20;;;2.33;;
46675;SDS011;32412;51.478;5.694;2022-07-10T04:12:43;5.60;;;2.50;;
46675;SDS011;32412;51.478;5.694;2022-07-10T04:15:09;10.82;;;3.58;;
46675;SDS011;32412;51.478;5.694;2022-07-10T04:17:36;6.63;;;2.40;;
46675;SDS011;32412;51.478;5.694;2022-07-10T04:20:02;5.85;;;2.60;;
46675;SDS011;32412;51.478;5.694;2022-07-10T04:22:29;8.80;;;3.13;;
46675;SDS011;32412;51.478;5.694;2022-07-10T04:24:54;4.55;;;2.47;;
46675;SDS011;32412;51.478;5.694;2022-07-10T04:27:23;7.65;;;2.63;;
46675;SDS011;32412;51.478;5.694;2022-07-10T04:29:49;6.93;;;2.22;;
46675;SDS011;32412;51.478;5.694;2022-07-10T04:32:15;4.47;;;2.22;;
46675;SDS011;32412;51.478;5.694;2022-07-10T04:34:41;5.82;;;2.25;;
46675;SDS011;32412;51.478;5.694;2022-07-10T04:37:07;5.43;;;2.40;;
46675;SDS011;32412;51.478;5.694;2022-07-10T04:39:34;6.95;;;2.40;;
46675;SDS011;32412;51.478;5.694;2022-07-10T04:42:00;9.15;;;2.45;;
46675;SDS011;32412;51.478;5.694;2022-07-10T04:44:26;8.40;;;2.20;;
46675;SDS011;32412;51.478;5.694;2022-07-10T04:46:52;11.32;;;2.47;;
46675;SDS011;32412;51.478;5.694;2022-07-10T04:49:18;6.35;;;2.70;;
46675;SDS011;32412;51.478;5.694;2022-07-10T04:51:44;8.70;;;2.40;;
46675;SDS011;32412;51.478;5.694;2022-07-10T04:54:10;6.00;;;2.42;;
46675;SDS011;32412;51.478;5.694;2022-07-10T04:56:35;6.82;;;2.40;;
46675;SDS011;32412;51.478;5.694;2022-07-10T04:59:01;5.65;;;2.55;;
46675;SDS011;32412;51.478;5.694;2022-07-10T05:01:27;6.90;;;2.25;;
46675;SDS011;32412;51.478;5.694;2022-07-10T05:03:52;7.05;;;2.63;;
46675;SDS011;32412;51.478;5.694;2022-07-10T05:06:18;10.88;;;2.55;;
46675;SDS011;32412;51.478;5.694;2022-07-10T05:08:44;5.30;;;2.95;;
46675;SDS011;32412;51.478;5.694;2022-07-10T05:11:09;6.18;;;2.88;;
46675;SDS011;32412;51.478;5.694;2022-07-10T05:13:36;8.35;;;2.50;;
46675;SDS011;32412;51.478;5.694;2022-07-10T05:16:02;6.97;;;2.30;;
46675;SDS011;32412;51.478;5.694;2022-07-10T05:18:28;9.63;;;2.35;;
46675;SDS011;32412;51.478;5.694;2022-07-10T05:20:54;8.80;;;2.72;;
46675;SDS011;32412;51.478;5.694;2022-07-10T05:23:20;5.43;;;2.28;;
46675;SDS011;32412;51.478;5.694;2022-07-10T05:25:46;9.65;;;2.47;;
46675;SDS011;32412;51.478;5.694;2022-07-10T05:28:11;6.15;;;2.28;;
46675;SDS011;32412;51.478;5.694;2022-07-10T05:30:40;7.40;;;2.40;;
46675;SDS011;32412;51.478;5.694;2022-07-10T05:33:06;6.90;;;2.20;;
46675;SDS011;32412;51.478;5.694;2022-07-10T05:35:32;4.40;;;2.33;;
46675;SDS011;32412;51.478;5.694;2022-07-10T05:37:58;8.57;;;2.63;;
46675;SDS011;32412;51.478;5.694;2022-07-10T05:40:26;6.00;;;2.33;;
46675;SDS011;32412;51.478;5.694;2022-07-10T05:42:52;9.43;;;2.30;;
46675;SDS011;32412;51.478;5.694;2022-07-10T05:45:18;11.68;;;2.30;;
46675;SDS011;32412;51.478;5.694;2022-07-10T05:47:44;8.90;;;2.13;;
46675;SDS011;32412;51.478;5.694;2022-07-10T05:50:10;5.53;;;2.00;;
46675;SDS011;32412;51.478;5.694;2022-07-10T05:52:36;8.93;;;2.30;;
46675;SDS011;32412;51.478;5.694;2022-07-10T05:55:02;7.43;;;2.20;;
46675;SDS011;32412;51.478;5.694;2022-07-10T05:57:31;5.53;;;1.73;;
46675;SDS011;32412;51.478;5.694;2022-07-10T05:59:57;6.00;;;2.10;;
46675;SDS011;32412;51.478;5.694;2022-07-10T06:02:23;6.05;;;2.40;;
46675;SDS011;32412;51.478;5.694;2022-07-10T06:04:49;7.57;;;2.20;;
46675;SDS011;32412;51.478;5.694;2022-07-10T06:07:15;4.15;;;2.10;;
46675;SDS011;32412;51.478;5.694;2022-07-10T06:09:41;6.90;;;2.10;;
46675;SDS011;32412;51.478;5.694;2022-07-10T06:12:07;5.85;;;1.80;;
46675;SDS011;32412;51.478;5.694;2022-07-10T06:14:32;10.43;;;2.17;;
46675;SDS011;32412;51.478;5.694;2022-07-10T06:16:58;7.32;;;1.90;;
46675;SDS011;32412;51.478;5.694;2022-07-10T06:19:24;8.73;;;2.00;;
46675;SDS011;32412;51.478;5.694;2022-07-10T06:21:49;6.35;;;2.10;;
46675;SDS011;32412;51.478;5.694;2022-07-10T06:24:35;6.53;;;1.80;;
46675;SDS011;32412;51.478;5.694;2022-07-10T06:27:01;5.38;;;1.75;;
46675;SDS011;32412;51.478;5.694;2022-07-10T06:29:26;8.52;;;1.80;;
46675;SDS011;32412;51.478;5.694;2022-07-10T06:31:52;6.95;;;2.10;;
46675;SDS011;32412;51.478;5.694;2022-07-10T06:34:18;7.07;;;2.10;;
46675;SDS011;32412;51.478;5.694;2022-07-10T06:36:44;6.10;;;1.92;;
46675;SDS011;32412;51.478;5.694;2022-07-10T06:39:10;6.25;;;1.80;;
46675;SDS011;32412;51.478;5.694;2022-07-10T06:41:35;5.30;;;2.08;;
46675;SDS011;32412;51.478;5.694;2022-07-10T06:44:01;11.43;;;2.67;;
46675;SDS011;32412;51.478;5.694;2022-07-10T06:46:27;9.00;;;1.83;;
46675;SDS011;32412;51.478;5.694;2022-07-10T06:48:53;11.88;;;2.20;;
46675;SDS011;32412;51.478;5.694;2022-07-10T06:51:19;6.13;;;2.10;;
46675;SDS011;32412;51.478;5.694;2022-07-10T06:53:45;7.15;;;2.35;;
46675;SDS011;32412;51.478;5.694;2022-07-10T06:56:10;9.13;;;2.00;;
46675;SDS011;32412;51.478;5.694;2022-07-10T06:58:37;7.78;;;1.75;;
46675;SDS011;32412;51.478;5.694;2022-07-10T07:01:03;11.75;;;1.88;;
46675;SDS011;32412;51.478;5.694;2022-07-10T07:03:28;6.38;;;2.05;;
46675;SDS011;32412;51.478;5.694;2022-07-10T07:05:54;10.00;;;1.77;;
46675;SDS011;32412;51.478;5.694;2022-07-10T07:08:20;4.00;;;1.40;;
46675;SDS011;32412;51.478;5.694;2022-07-10T07:10:45;8.63;;;1.90;;
46675;SDS011;32412;51.478;5.694;2022-07-10T07:13:11;6.72;;;1.67;;
46675;SDS011;32412;51.478;5.694;2022-07-10T07:15:37;8.07;;;1.75;;
46675;SDS011;32412;51.478;5.694;2022-07-10T07:18:07;9.68;;;2.33;;
46675;SDS011;32412;51.478;5.694;2022-07-10T07:20:36;6.72;;;1.63;;
46675;SDS011;32412;51.478;5.694;2022-07-10T07:23:21;5.88;;;1.67;;
46675;SDS011;32412;51.478;5.694;2022-07-10T07:25:48;10.13;;;1.95;;
46675;SDS011;32412;51.478;5.694;2022-07-10T07:28:15;8.90;;;1.92;;
46675;SDS011;32412;51.478;5.694;2022-07-10T07:30:41;6.28;;;1.73;;
46675;SDS011;32412;51.478;5.694;2022-07-10T07:33:07;5.28;;;1.70;;
46675;SDS011;32412;51.478;5.694;2022-07-10T07:35:33;7.50;;;1.45;;
46675;SDS011;32412;51.478;5.694;2022-07-10T07:38:02;4.22;;;1.30;;
46675;SDS011;32412;51.478;5.694;2022-07-10T07:40:29;9.73;;;1.60;;
46675;SDS011;32412;51.478;5.694;2022-07-10T07:42:55;5.95;;;1.30;;
46675;SDS011;32412;51.478;5.694;2022-07-10T07:45:21;8.77;;;1.58;;
46675;SDS011;32412;51.478;5.694;2022-07-10T07:47:49;6.72;;;1.85;;
46675;SDS011;32412;51.478;5.694;2022-07-10T07:50:25;5.78;;;1.60;;
46675;SDS011;32412;51.478;5.694;2022-07-10T07:52:57;7.05;;;1.52;;
46675;SDS011;32412;51.478;5.694;2022-07-10T07:55:23;5.70;;;1.50;;
46675;SDS011;32412;51.478;5.694;2022-07-10T07:57:53;7.40;;;1.70;;
46675;SDS011;32412;51.478;5.694;2022-07-10T08:00:20;6.82;;;1.73;;
46675;SDS011;32412;51.478;5.694;2022-07-10T08:02:47;6.57;;;2.05;;
46675;SDS011;32412;51.478;5.694;2022-07-10T08:05:14;9.20;;;2.47;;
46675;SDS011;32412;51.478;5.694;2022-07-10T08:07:41;10.38;;;1.73;;
46675;SDS011;32412;51.478;5.694;2022-07-10T08:10:12;9.88;;;1.80;;
46675;SDS011;32412;51.478;5.694;2022-07-10T08:12:40;5.35;;;1.30;;
46675;SDS011;32412;51.478;5.694;2022-07-10T08:15:09;4.35;;;1.83;;
46675;SDS011;32412;51.478;5.694;2022-07-10T08:17:36;9.35;;;1.83;;
46675;SDS011;32412;51.478;5.694;2022-07-10T08:20:03;6.18;;;1.55;;
46675;SDS011;32412;51.478;5.694;2022-07-10T08:22:30;9.57;;;1.80;;
46675;SDS011;32412;51.478;5.694;2022-07-10T08:24:56;6.25;;;1.85;;
46675;SDS011;32412;51.478;5.694;2022-07-10T08:27:22;9.00;;;2.00;;
46675;SDS011;32412;51.478;5.694;2022-07-10T08:29:48;7.75;;;1.73;;
46675;SDS011;32412;51.478;5.694;2022-07-10T08:32:17;7.07;;;1.52;;
46675;SDS011;32412;51.478;5.694;2022-07-10T08:34:43;7.78;;;2.15;;
46675;SDS011;32412;51.478;5.694;2022-07-10T08:37:08;7.35;;;1.90;;
46675;SDS011;32412;51.478;5.694;2022-07-10T08:39:34;6.45;;;2.00;;
46675;SDS011;32412;51.478;5.694;2022-07-10T08:42:00;8.85;;;2.05;;
46675;SDS011;32412;51.478;5.694;2022-07-10T08:44:27;6.78;;;1.90;;
46675;SDS011;32412;51.478;5.694;2022-07-10T08:46:54;6.85;;;2.45;;
46675;SDS011;32412;51.478;5.694;2022-07-10T08:49:23;7.75;;;2.85;;
46675;SDS011;32412;51.478;5.694;2022-07-10T08:51:54;9.35;;;3.03;;
46675;SDS011;32412;51.478;5.694;2022-07-10T08:54:30;7.82;;;2.58;;
46675;SDS011;32412;51.478;5.694;2022-07-10T08:56:57;4.93;;;2.60;;
46675;SDS011;32412;51.478;5.694;2022-07-10T08:59:23;9.93;;;2.95;;
46675;SDS011;32412;51.478;5.694;2022-07-10T09:01:49;6.40;;;2.25;;
46675;SDS011;32412;51.478;5.694;2022-07-10T09:04:19;11.48;;;2.90;;
46675;SDS011;32412;51.478;5.694;2022-07-10T09:06:46;5.40;;;2.40;;
46675;SDS011;32412;51.478;5.694;2022-07-10T09:09:12;6.78;;;2.47;;
46675;SDS011;32412;51.478;5.694;2022-07-10T09:11:39;11.63;;;2.45;;
46675;SDS011;32412;51.478;5.694;2022-07-10T09:14:09;10.88;;;2.83;;
46675;SDS011;32412;51.478;5.694;2022-07-10T09:16:43;6.65;;;2.50;;
46675;SDS011;32412;51.478;5.694;2022-07-10T09:19:24;7.20;;;2.80;;
46675;SDS011;32412;51.478;5.694;2022-07-10T09:21:54;5.47;;;2.00;;
46675;SDS011;32412;51.478;5.694;2022-07-10T09:24:42;10.68;;;2.88;;
46675;SDS011;32412;51.478;5.694;2022-07-10T09:27:11;8.15;;;2.40;;
46675;SDS011;32412;51.478;5.694;2022-07-10T09:29:51;4.75;;;2.60;;
46675;SDS011;32412;51.478;5.694;2022-07-10T09:32:22;7.40;;;2.70;;
46675;SDS011;32412;51.478;5.694;2022-07-10T09:34:49;5.43;;;3.05;;
46675;SDS011;32412;51.478;5.694;2022-07-10T09:37:39;5.60;;;2.25;;
46675;SDS011;32412;51.478;5.694;2022-07-10T09:40:06;5.82;;;2.38;;
46675;SDS011;32412;51.478;5.694;2022-07-10T09:42:33;11.88;;;2.80;;
46675;SDS011;32412;51.478;5.694;2022-07-10T09:47:37;10.10;;;3.17;;
46675;SDS011;32412;51.478;5.694;2022-07-10T09:50:33;6.82;;;2.28;;
46675;SDS011;32412;51.478;5.694;2022-07-10T09:53:07;5.38;;;2.42;;
46675;SDS011;32412;51.478;5.694;2022-07-10T09:55:36;6.70;;;2.30;;
46675;SDS011;32412;51.478;5.694;2022-07-10T09:58:06;4.60;;;2.10;;
46675;SDS011;32412;51.478;5.694;2022-07-10T10:03:04;7.30;;;2.30;;
46675;SDS011;32412;51.478;5.694;2022-07-10T10:08:19;7.30;;;2.25;;
46675;SDS011;32412;51.478;5.694;2022-07-10T10:10:52;6.72;;;2.45;;
46675;SDS011;32412;51.478;5.694;2022-07-10T10:13:22;7.18;;;2.03;;
46675;SDS011;32412;51.478;5.694;2022-07-10T10:15:52;9.95;;;2.25;;
46675;SDS011;32412;51.478;5.694;2022-07-10T10:18:22;5.78;;;2.40;;
46675;SDS011;32412;51.478;5.694;2022-07-10T10:20:49;3.03;;;1.73;;
46675;SDS011;32412;51.478;5.694;2022-07-10T10:23:17;5.00;;;2.00;;
46675;SDS011;32412;51.478;5.694;2022-07-10T10:25:51;5.25;;;2.28;;
46675;SDS011;32412;51.478;5.694;2022-07-10T10:28:19;6.70;;;2.25;;
46675;SDS011;32412;51.478;5.694;2022-07-10T10:30:48;5.88;;;2.40;;
46675;SDS011;32412;51.478;5.694;2022-07-10T10:36:08;6.38;;;2.25;;
46675;SDS011;32412;51.478;5.694;2022-07-10T10:41:25;2.50;;;1.63;;
46675;SDS011;32412;51.478;5.694;2022-07-10T10:47:02;6.32;;;1.73;;
46675;SDS011;32412;51.478;5.694;2022-07-10T10:49:47;6.25;;;1.85;;
46675;SDS011;32412;51.478;5.694;2022-07-10T10:52:14;4.00;;;1.85;;
46675;SDS011;32412;51.478;5.694;2022-07-10T10:59:58;4.38;;;2.53;;
46675;SDS011;32412;51.478;5.694;2022-07-10T11:02:31;5.30;;;1.90;;
46675;SDS011;32412;51.478;5.694;2022-07-10T11:10:26;4.50;;;2.15;;
46675;SDS011;32412;51.478;5.694;2022-07-10T11:12:57;4.88;;;2.22;;
46675;SDS011;32412;51.478;5.694;2022-07-10T11:15:49;4.75;;;2.20;;
46675;SDS011;32412;51.478;5.694;2022-07-10T11:18:18;4.53;;;2.53;;
46675;SDS011;32412;51.478;5.694;2022-07-10T11:20:56;4.32;;;2.42;;
46675;SDS011;32412;51.478;5.694;2022-07-10T11:26:35;5.00;;;2.67;;
46675;SDS011;32412;51.478;5.694;2022-07-10T11:29:01;4.22;;;2.08;;
46675;SDS011;32412;51.478;5.694;2022-07-10T11:31:30;4.05;;;1.98;;
46675;SDS011;32412;51.478;5.694;2022-07-10T11:33:59;2.55;;;1.90;;
46675;SDS011;32412;51.478;5.694;2022-07-10T11:36:26;3.58;;;2.17;;
46675;SDS011;32412;51.478;5.694;2022-07-10T11:39:02;3.20;;;1.65;;
46675;SDS011;32412;51.478;5.694;2022-07-10T11:41:30;3.53;;;1.65;;
46675;SDS011;32412;51.478;5.694;2022-07-10T11:43:57;3.53;;;1.80;;
46675;SDS011;32412;51.478;5.694;2022-07-10T11:46:25;4.60;;;1.73;;
46675;SDS011;32412;51.478;5.694;2022-07-10T11:48:55;3.75;;;1.60;;
46675;SDS011;32412;51.478;5.694;2022-07-10T11:51:27;2.67;;;1.50;;
46675;SDS011;32412;51.478;5.694;2022-07-10T11:53:59;5.85;;;1.90;;
46675;SDS011;32412;51.478;5.694;2022-07-10T11:56:30;3.65;;;1.77;;
46675;SDS011;32412;51.478;5.694;2022-07-10T11:59:08;3.05;;;1.58;;
46675;SDS011;32412;51.478;5.694;2022-07-10T12:01:35;2.03;;;1.50;;
46675;SDS011;32412;51.478;5.694;2022-07-10T12:04:13;3.67;;;1.73;;
46675;SDS011;32412;51.478;5.694;2022-07-10T12:06:41;2.83;;;1.50;;
46675;SDS011;32412;51.478;5.694;2022-07-10T12:09:15;3.47;;;1.52;;
46675;SDS011;32412;51.478;5.694;2022-07-10T12:11:42;4.60;;;1.52;;
46675;SDS011;32412;51.478;5.694;2022-07-10T12:14:22;3.80;;;1.35;;
46675;SDS011;32412;51.478;5.694;2022-07-10T12:16:49;3.08;;;1.40;;
46675;SDS011;32412;51.478;5.694;2022-07-10T12:19:19;3.90;;;1.80;;
46675;SDS011;32412;51.478;5.694;2022-07-10T12:21:49;3.05;;;1.70;;
46675;SDS011;32412;51.478;5.694;2022-07-10T12:24:17;5.55;;;1.70;;
46675;SDS011;32412;51.478;5.694;2022-07-10T12:26:45;3.65;;;1.48;;
46675;SDS011;32412;51.478;5.694;2022-07-10T12:29:18;3.20;;;1.63;;
46675;SDS011;32412;51.478;5.694;2022-07-10T12:31:47;4.20;;;1.88;;
46675;SDS011;32412;51.478;5.694;2022-07-10T12:34:14;4.20;;;2.22;;
46675;SDS011;32412;51.478;5.694;2022-07-10T12:36:51;2.90;;;1.52;;
46675;SDS011;32412;51.478;5.694;2022-07-10T12:39:22;3.08;;;1.42;;
46675;SDS011;32412;51.478;5.694;2022-07-10T12:41:55;5.65;;;1.77;;
46675;SDS011;32412;51.478;5.694;2022-07-10T12:44:30;5.13;;;1.50;;
46675;SDS011;32412;51.478;5.694;2022-07-10T12:47:00;6.80;;;1.58;;
46675;SDS011;32412;51.478;5.694;2022-07-10T12:49:56;6.10;;;1.50;;
46675;SDS011;32412;51.478;5.694;2022-07-10T12:52:31;3.85;;;1.33;;
46675;SDS011;32412;51.478;5.694;2022-07-10T12:55:17;3.17;;;1.50;;
46675;SDS011;32412;51.478;5.694;2022-07-10T13:00:15;2.30;;;1.10;;
46675;SDS011;32412;51.478;5.694;2022-07-10T13:02:45;3.55;;;1.23;;
46675;SDS011;32412;51.478;5.694;2022-07-10T13:06:00;2.70;;;1.17;;
46675;SDS011;32412;51.478;5.694;2022-07-10T13:10:32;1.50;;;0.95;;
46675;SDS011;32412;51.478;5.694;2022-07-10T13:13:04;2.83;;;1.30;;
46675;SDS011;32412;51.478;5.694;2022-07-10T13:15:32;1.50;;;0.95;;
46675;SDS011;32412;51.478;5.694;2022-07-10T13:18:24;1.65;;;1.00;;
46675;SDS011;32412;51.478;5.694;2022-07-10T13:20:56;2.88;;;1.15;;
46675;SDS011;32412;51.478;5.694;2022-07-10T13:23:25;4.75;;;1.10;;
46675;SDS011;32412;51.478;5.694;2022-07-10T13:25:52;2.65;;;1.23;;
46675;SDS011;32412;51.478;5.694;2022-07-10T13:28:18;2.13;;;1.00;;
46675;SDS011;32412;51.478;5.694;2022-07-10T13:31:05;2.33;;;1.20;;
46675;SDS011;32412;51.478;5.694;2022-07-10T13:33:42;3.58;;;1.00;;
46675;SDS011;32412;51.478;5.694;2022-07-10T13:36:08;3.45;;;1.13;;
46675;SDS011;32412;51.478;5.694;2022-07-10T13:38:34;3.78;;;1.10;;
46675;SDS011;32412;51.478;5.694;2022-07-10T13:41:00;0.93;;;0.88;;
46675;SDS011;32412;51.478;5.694;2022-07-10T13:43:26;4.90;;;1.30;;
46675;SDS011;32412;51.478;5.694;2022-07-10T13:45:57;1.30;;;1.13;;
46675;SDS011;32412;51.478;5.694;2022-07-10T13:48:24;1.77;;;1.10;;
46675;SDS011;32412;51.478;5.694;2022-07-10T13:50:53;3.47;;;1.10;;
46675;SDS011;32412;51.478;5.694;2022-07-10T13:53:19;2.30;;;1.10;;
46675;SDS011;32412;51.478;5.694;2022-07-10T13:55:45;4.38;;;1.08;;
46675;SDS011;32412;51.478;5.694;2022-07-10T13:58:11;2.17;;;0.90;;
46675;SDS011;32412;51.478;5.694;2022-07-10T14:00:38;1.40;;;0.98;;
46675;SDS011;32412;51.478;5.694;2022-07-10T14:03:04;3.67;;;1.23;;
46675;SDS011;32412;51.478;5.694;2022-07-10T14:05:30;4.25;;;1.23;;
46675;SDS011;32412;51.478;5.694;2022-07-10T14:07:57;2.42;;;1.00;;
46675;SDS011;32412;51.478;5.694;2022-07-10T14:10:23;8.18;;;1.35;;
46675;SDS011;32412;51.478;5.694;2022-07-10T14:12:50;2.25;;;1.27;;
46675;SDS011;32412;51.478;5.694;2022-07-10T14:15:17;3.58;;;1.30;;
46675;SDS011;32412;51.478;5.694;2022-07-10T14:17:43;3.20;;;1.25;;
46675;SDS011;32412;51.478;5.694;2022-07-10T14:20:09;3.67;;;1.30;;
46675;SDS011;32412;51.478;5.694;2022-07-10T14:22:36;2.25;;;1.10;;
46675;SDS011;32412;51.478;5.694;2022-07-10T14:25:03;3.20;;;1.10;;
46675;SDS011;32412;51.478;5.694;2022-07-10T14:27:33;2.03;;;1.08;;
46675;SDS011;32412;51.478;5.694;2022-07-10T14:29:59;4.00;;;1.10;;
46675;SDS011;32412;51.478;5.694;2022-07-10T14:32:25;2.50;;;1.20;;
46675;SDS011;32412;51.478;5.694;2022-07-10T14:34:51;2.65;;;1.10;;
46675;SDS011;32412;51.478;5.694;2022-07-10T14:37:17;3.42;;;1.30;;
46675;SDS011;32412;51.478;5.694;2022-07-10T14:39:43;1.50;;;1.20;;
46675;SDS011;32412;51.478;5.694;2022-07-10T14:42:11;2.15;;;1.20;;
46675;SDS011;32412;51.478;5.694;2022-07-10T14:44:37;3.30;;;1.20;;
46675;SDS011;32412;51.478;5.694;2022-07-10T14:47:03;2.10;;;0.95;;
46675;SDS011;32412;51.478;5.694;2022-07-10T14:49:29;4.68;;;1.10;;
46675;SDS011;32412;51.478;5.694;2022-07-10T14:51:55;3.75;;;1.48;;
46675;SDS011;32412;51.478;5.694;2022-07-10T14:54:21;3.20;;;1.42;;
46675;SDS011;32412;51.478;5.694;2022-07-10T14:56:46;3.83;;;1.90;;
46675;SDS011;32412;51.478;5.694;2022-07-10T14:59:12;3.83;;;1.65;;
46675;SDS011;32412;51.478;5.694;2022-07-10T15:01:38;2.95;;;1.40;;
46675;SDS011;32412;51.478;5.694;2022-07-10T15:04:04;1.75;;;1.08;;
46675;SDS011;32412;51.478;5.694;2022-07-10T15:06:30;2.58;;;0.90;;
46675;SDS011;32412;51.478;5.694;2022-07-10T15:08:57;3.50;;;1.10;;
46675;SDS011;32412;51.478;5.694;2022-07-10T15:11:23;2.53;;;1.70;;
46675;SDS011;32412;51.478;5.694;2022-07-10T15:13:50;4.55;;;2.85;;
46675;SDS011;32412;51.478;5.694;2022-07-10T15:16:23;3.22;;;1.30;;
46675;SDS011;32412;51.478;5.694;2022-07-10T15:18:49;2.22;;;1.65;;
46675;SDS011;32412;51.478;5.694;2022-07-10T15:21:15;1.73;;;1.25;;
46675;SDS011;32412;51.478;5.694;2022-07-10T15:23:41;1.42;;;1.10;;
46675;SDS011;32412;51.478;5.694;2022-07-10T15:26:07;4.45;;;1.60;;
46675;SDS011;32412;51.478;5.694;2022-07-10T15:28:33;2.67;;;1.33;;
46675;SDS011;32412;51.478;5.694;2022-07-10T15:30:58;1.25;;;1.02;;